Time;durP1;ratioP1;P1;durP2;ratioP2;P2;SDS_P1;SDS_P2;PMS_P1;PMS_P2;Temp;Humidity;BMP_temperature;BMP_pressure;BME280_temperature;BME280_humidity;BME280_pressure;Samples;Min_cycle;Max_cycle;Signal;HPM_P1;HPM_P2
2023/05/11 00:00:11;;;;;;;325.75;119.57;;;;;;;10.32;97.89;100023.94;292039;33;848;-77
2023/05/11 00:00:21;;;;;;;324.50;116.38;;;;;;;10.35;97.58;100022.13;290034;34;1358;-78
2023/05/11 00:00:32;;;;;;;328.63;117.43;;;;;;;10.35;97.61;100022.97;288723;33;4674;-78
2023/05/11 00:00:43;;;;;;;332.60;120.03;;;;;;;10.28;97.79;100017.09;287615;34;5939;-78
2023/05/11 00:01:04;;;;;;;332.45;120.10;;;;;;;10.31;98.01;100027.44;281143;35;1418;-78
2023/05/11 00:01:15;;;;;;;323.55;115.00;;;;;;;10.39;97.65;100029.81;278177;35;6854;-78
2023/05/11 00:01:25;;;;;;;323.23;115.97;;;;;;;10.42;97.72;100026.22;273386;35;8863;-78
2023/05/11 00:01:36;;;;;;;324.03;117.33;;;;;;;10.37;97.53;100026.41;273917;36;1278;-77
2023/05/11 00:01:47;;;;;;;324.75;116.82;;;;;;;10.41;97.63;100027.13;274239;35;15389;-77
2023/05/11 00:01:59;;;;;;;322.20;115.00;;;;;;;10.44;97.46;100027.00;274977;35;13923;-76
2023/05/11 00:04:34;;;;;;;312.42;108.13;;;;;;;10.25;98.25;100022.41;2495564;27;20279;-79
2023/05/11 00:04:44;;;;;;;316.83;111.10;;;;;;;10.25;98.35;100022.41;354237;27;1202;-78
2023/05/11 00:04:55;;;;;;;318.92;110.95;;;;;;;10.28;98.18;100022.31;351601;28;1211;-78
2023/05/11 00:05:06;;;;;;;323.03;114.13;;;;;;;10.32;98.12;100028.31;348971;28;907;-78
2023/05/11 00:05:16;;;;;;;322.87;113.93;;;;;;;10.39;98.22;100028.97;348821;28;900;-77
2023/05/11 00:05:26;;;;;;;323.25;115.28;;;;;;;10.39;97.98;100032.44;351642;28;1218;-77
2023/05/11 00:05:37;;;;;;;323.77;114.70;;;;;;;10.32;98.08;100029.16;350150;28;1136;-77
2023/05/11 00:05:48;;;;;;;324.15;115.38;;;;;;;10.32;97.99;100025.69;350218;28;820;-77
2023/05/11 00:05:58;;;;;;;322.83;115.95;;;;;;;10.32;98.33;100036.16;346019;28;1319;-78
2023/05/11 00:06:09;;;;;;;320.90;115.27;;;;;;;10.30;98.32;100023.13;347420;28;1299;-77
2023/05/11 00:06:20;;;;;;;318.57;114.07;;;;;;;10.32;98.23;100023.94;348528;28;897;-78
2023/05/11 00:06:31;;;;;;;318.33;113.90;;;;;;;10.29;98.20;100018.78;348430;28;1291;-76
2023/05/11 00:06:41;;;;;;;321.88;116.20;;;;;;;10.30;98.01;100028.34;348879;28;938;-76
2023/05/11 00:06:51;;;;;;;323.53;115.40;;;;;;;10.24;98.13;100025.94;350096;28;851;-78
2023/05/11 00:07:02;;;;;;;324.00;115.47;;;;;;;10.29;98.32;100029.25;350172;28;1219;-78
2023/05/11 00:07:12;;;;;;;324.27;115.23;;;;;;;10.31;98.18;100022.22;350310;28;951;-78
2023/05/11 00:07:23;;;;;;;322.33;115.60;;;;;;;10.35;98.27;100022.13;348794;28;1445;-77
2023/05/11 00:07:33;;;;;;;324.30;115.77;;;;;;;10.33;97.99;100033.47;350222;28;1193;-77
2023/05/11 00:07:43;;;;;;;322.63;115.47;;;;;;;10.35;98.15;100033.44;350314;28;920;-77
2023/05/11 00:07:54;;;;;;;324.83;115.93;;;;;;;10.33;98.17;100023.03;347359;28;895;-78
2023/05/11 00:08:04;;;;;;;323.77;115.20;;;;;;;10.37;98.03;100025.53;348888;28;797;-78
2023/05/11 00:08:15;;;;;;;323.48;115.47;;;;;;;10.35;98.02;100025.59;346591;28;3272;-78
2023/05/11 00:08:25;;;;;;;322.87;115.73;;;;;;;10.39;98.31;100029.81;344700;28;3290;-78
2023/05/11 00:08:36;;;;;;;323.48;117.65;;;;;;;10.45;97.96;100033.97;343112;28;4867;-77
2023/05/11 00:08:46;;;;;;;326.43;117.93;;;;;;;10.49;97.97;100032.94;344491;28;885;-77
2023/05/11 00:08:57;;;;;;;325.33;116.93;;;;;;;10.53;97.96;100031.94;345267;28;3025;-77
2023/05/11 00:09:08;;;;;;;324.80;117.07;;;;;;;10.50;97.61;100037.28;349950;28;1177;-77
2023/05/11 00:09:18;;;;;;;321.15;114.95;;;;;;;10.42;97.51;100028.81;353088;28;848;-77
2023/05/11 00:09:29;;;;;;;319.90;112.63;;;;;;;10.38;97.61;100027.25;348787;28;1333;-78
2023/05/11 00:09:40;;;;;;;319.02;109.93;;;;;;;10.29;97.94;100024.03;350210;28;1239;-78
2023/05/11 00:09:50;;;;;;;319.02;110.03;;;;;;;10.33;97.81;100025.63;350303;28;789;-78
2023/05/11 00:10:01;;;;;;;320.97;113.63;;;;;;;10.34;98.15;100029.09;346273;28;912;-77
2023/05/11 00:10:11;;;;;;;322.27;115.57;;;;;;;10.22;98.30;100032.97;348330;28;1235;-78
2023/05/11 00:10:23;;;;;;;324.40;117.77;;;;;;;10.13;98.77;100022.78;350245;28;873;-77
2023/05/11 00:10:33;;;;;;;326.42;116.55;;;;;;;10.06;98.85;100017.78;347436;28;1411;-78
2023/05/11 00:10:47;;;;;;;328.40;116.32;;;;;;;10.11;99.20;100021.13;346091;28;1093;-77
2023/05/11 00:10:59;;;;;;;325.42;115.50;;;;;;;10.13;99.07;100033.25;346589;28;1274;-77
2023/05/11 00:11:10;;;;;;;321.55;113.68;;;;;;;10.07;99.08;100025.59;343146;28;1343;-77
2023/05/11 00:11:20;;;;;;;321.95;113.80;;;;;;;10.10;99.34;100028.09;341999;28;1212;-77
2023/05/11 00:11:31;;;;;;;322.63;114.30;;;;;;;10.09;99.33;100031.63;345789;28;1352;-77
2023/05/11 00:11:41;;;;;;;323.77;113.28;;;;;;;10.10;99.48;100028.09;342120;28;824;-77
2023/05/11 00:11:52;;;;;;;323.53;112.57;;;;;;;10.13;99.12;100033.25;343356;28;1227;-77
2023/05/11 00:12:02;;;;;;;326.52;112.68;;;;;;;10.21;99.08;100030.41;344640;28;893;-77
2023/05/11 00:12:13;;;;;;;326.55;114.13;;;;;;;10.25;99.04;100037.25;345268;28;1162;-77
2023/05/11 00:12:23;;;;;;;325.30;115.50;;;;;;;10.21;98.88;100036.50;345661;28;1464;-77
2023/05/11 00:12:33;;;;;;;322.17;115.60;;;;;;;10.23;99.16;100034.69;343472;28;991;-77
2023/05/11 00:12:44;;;;;;;319.77;113.43;;;;;;;10.24;98.75;100036.41;346201;28;1251;-77
2023/05/11 00:12:55;;;;;;;322.88;113.40;;;;;;;10.23;98.89;100032.06;344464;28;1353;-77
2023/05/11 00:13:06;;;;;;;321.27;112.82;;;;;;;10.19;99.06;100032.19;342011;28;1387;-78
2023/05/11 00:13:16;;;;;;;322.57;114.63;;;;;;;10.18;99.26;100033.94;339279;29;1274;-77
2023/05/11 00:13:28;;;;;;;318.25;112.78;;;;;;;10.18;99.21;100031.34;337998;29;1382;-78
2023/05/11 00:13:38;;;;;;;318.73;114.25;;;;;;;10.12;99.16;100035.91;340848;28;1050;-78
2023/05/11 00:13:49;;;;;;;324.17;114.23;;;;;;;10.01;99.88;100020.56;340639;29;1286;-77
2023/05/11 00:13:59;;;;;;;327.05;114.60;;;;;;;10.04;99.60;100037.91;338038;29;1356;-77
2023/05/11 00:14:10;;;;;;;328.07;113.50;;;;;;;10.07;99.57;100030.81;337906;29;1457;-77
2023/05/11 00:14:20;;;;;;;323.42;113.72;;;;;;;10.13;99.92;100027.16;338183;29;905;-76
2023/05/11 00:14:30;;;;;;;322.53;114.17;;;;;;;10.16;99.71;100025.28;338531;29;1420;-76
2023/05/11 00:14:41;;;;;;;323.25;114.03;;;;;;;10.24;99.29;100025.94;338091;29;1343;-76
2023/05/11 00:14:51;;;;;;;328.57;120.70;;;;;;;10.29;99.17;100029.25;335144;29;1338;-76
2023/05/11 00:15:02;;;;;;;331.67;122.75;;;;;;;10.35;99.26;100027.34;338897;29;1693;-77
2023/05/11 00:15:12;;;;;;;331.73;124.00;;;;;;;10.41;98.78;100035.81;336408;29;1737;-78
2023/05/11 00:15:23;;;;;;;326.58;117.15;;;;;;;10.46;98.50;100038.28;333851;29;2145;-77
2023/05/11 00:15:33;;;;;;;325.07;116.83;;;;;;;10.48;98.28;100033.84;336793;29;877;-77
2023/05/11 00:15:44;;;;;;;322.65;115.40;;;;;;;10.50;98.37;100032.03;337582;29;1723;-77
2023/05/11 00:15:54;;;;;;;322.70;115.40;;;;;;;10.41;98.14;100021.88;333801;29;1459;-77
2023/05/11 00:16:05;;;;;;;320.73;114.63;;;;;;;10.43;98.02;100041.00;333007;29;882;-76
2023/05/11 00:16:16;;;;;;;323.25;116.78;;;;;;;10.41;98.11;100025.34;332945;29;1087;-77
2023/05/11 00:16:26;;;;;;;323.77;116.17;;;;;;;10.44;97.92;100034.88;330142;29;1727;-77
2023/05/11 00:16:36;;;;;;;323.65;115.78;;;;;;;10.46;98.12;100033.06;329264;29;1310;-77
2023/05/11 00:16:47;;;;;;;324.07;115.53;;;;;;;10.48;98.00;100037.31;328261;29;1944;-77
2023/05/11 00:16:57;;;;;;;323.13;115.70;;;;;;;10.47;98.06;100026.91;329577;29;1849;-77
2023/05/11 00:17:08;;;;;;;322.20;113.90;;;;;;;10.43;98.01;100025.31;326270;29;1893;-77
2023/05/11 00:17:19;;;;;;;322.05;113.25;;;;;;;10.50;97.76;100032.03;325593;30;1615;-77
2023/05/11 00:17:30;;;;;;;324.38;114.45;;;;;;;10.56;97.71;100047.53;322767;30;3086;-76
2023/05/11 00:17:40;;;;;;;325.13;116.10;;;;;;;10.52;97.33;100035.47;319885;30;3017;-77
2023/05/11 00:17:50;;;;;;;327.13;116.77;;;;;;;10.46;97.72;100035.66;321639;30;5397;-77
2023/05/11 00:18:01;;;;;;;327.40;117.77;;;;;;;10.37;97.83;100031.63;321158;30;1709;-77
2023/05/11 00:18:11;;;;;;;328.60;118.22;;;;;;;10.40;97.99;100035.91;323980;30;5229;-77
2023/05/11 00:18:21;;;;;;;325.20;117.57;;;;;;;10.36;98.20;100034.28;325464;30;1169;-77
2023/05/11 00:18:32;;;;;;;322.77;115.63;;;;;;;10.26;98.09;100033.72;321605;30;1966;-77
2023/05/11 00:18:42;;;;;;;324.20;116.60;;;;;;;10.24;98.50;100039.00;321898;30;2473;-77
2023/05/11 00:18:53;;;;;;;322.75;115.78;;;;;;;10.21;98.90;100040.88;320557;30;1997;-77
2023/05/11 00:19:03;;;;;;;324.43;117.80;;;;;;;10.19;99.38;100030.47;315015;31;1214;-76
2023/05/11 00:19:14;;;;;;;325.40;119.43;;;;;;;10.21;99.12;100036.50;311551;31;2663;-77
2023/05/11 00:19:24;;;;;;;325.15;119.75;;;;;;;10.18;99.08;100033.94;312468;31;2649;-77
2023/05/11 00:19:35;;;;;;;322.90;117.38;;;;;;;10.18;99.39;100035.72;313939;31;1332;-76
2023/05/11 00:19:45;;;;;;;323.50;116.10;;;;;;;10.17;99.40;100034.84;314533;31;2677;-78
2023/05/11 00:19:55;;;;;;;326.00;116.70;;;;;;;10.24;99.50;100033.78;312262;31;3033;-78
2023/05/11 00:20:06;;;;;;;324.98;117.40;;;;;;;10.26;99.24;100034.59;312752;31;803;-77
2023/05/11 00:20:17;;;;;;;320.25;114.85;;;;;;;10.30;99.07;100038.81;312106;31;2506;-77
2023/05/11 00:20:27;;;;;;;319.03;115.53;;;;;;;10.28;99.05;100031.94;312131;31;2096;-77
2023/05/11 00:20:37;;;;;;;321.38;115.57;;;;;;;10.31;98.85;100037.91;311712;31;1229;-77
2023/05/11 00:20:48;;;;;;;322.20;116.53;;;;;;;10.28;98.92;100038.00;309521;31;882;-77
2023/05/11 00:20:59;;;;;;;323.87;117.10;;;;;;;10.26;99.18;100031.13;307018;31;3948;-77
2023/05/11 00:21:09;;;;;;;322.70;116.75;;;;;;;10.28;98.85;100031.94;303242;32;3245;-77
2023/05/11 00:21:21;;;;;;;324.13;117.87;;;;;;;10.27;98.84;100031.06;303144;32;885;-77
2023/05/11 00:21:32;;;;;;;325.02;117.38;;;;;;;10.35;98.88;100040.44;303966;32;4452;-77
2023/05/11 00:21:42;;;;;;;325.38;117.43;;;;;;;10.38;98.83;100037.72;301644;32;4330;-77
2023/05/11 00:21:53;;;;;;;326.40;117.27;;;;;;;10.35;98.52;100037.81;299986;32;1234;-77
2023/05/11 00:22:03;;;;;;;325.73;117.85;;;;;;;10.38;98.89;100040.31;294361;33;1308;-77
2023/05/11 00:22:13;;;;;;;326.63;117.83;;;;;;;10.41;98.79;100033.19;292741;33;4040;-77
2023/05/11 00:22:24;;;;;;;326.15;116.47;;;;;;;10.45;98.38;100037.44;291750;33;3298;-77
2023/05/11 00:22:34;;;;;;;326.03;115.83;;;;;;;10.40;98.09;100038.50;293966;33;1219;-77
2023/05/11 00:22:45;;;;;;;324.15;115.82;;;;;;;10.30;98.12;100036.19;291475;33;3371;-77
2023/05/11 00:22:55;;;;;;;322.90;115.63;;;;;;;10.22;98.57;100040.81;291644;33;4421;-77
2023/05/11 00:23:06;;;;;;;322.17;115.82;;;;;;;10.18;98.81;100038.31;292964;33;1242;-77
2023/05/11 00:23:16;;;;;;;325.30;117.27;;;;;;;10.16;99.43;100041.00;290891;33;5430;-77
2023/05/11 00:23:27;;;;;;;329.13;118.85;;;;;;;10.15;99.35;100034.03;291208;33;5711;-77
2023/05/11 00:23:37;;;;;;;330.40;119.57;;;;;;;10.15;99.53;100048.88;291141;33;1167;-77
2023/05/11 00:23:48;;;;;;;327.40;117.85;;;;;;;10.10;99.49;100038.56;285410;34;5489;-77
2023/05/11 00:23:59;;;;;;;326.60;118.10;;;;;;;10.09;99.79;100044.69;284352;34;6037;-76
2023/05/11 00:24:09;;;;;;;326.80;117.37;;;;;;;10.10;99.78;100038.56;284608;34;5779;-76
2023/05/11 00:24:20;;;;;;;329.42;118.50;;;;;;;10.14;99.79;100037.56;284366;34;1475;-76
2023/05/11 00:24:30;;;;;;;329.37;119.57;;;;;;;10.19;99.73;100043.53;280191;34;4748;-76
2023/05/11 00:24:40;;;;;;;329.17;120.05;;;;;;;10.20;99.67;100040.00;279357;35;4300;-77
2023/05/11 00:24:51;;;;;;;326.17;119.00;;;;;;;10.15;99.74;100049.75;280073;35;823;-77
2023/05/11 00:25:03;;;;;;;325.45;118.38;;;;;;;10.07;99.80;100033.44;277748;35;5051;-77
2023/05/11 00:25:13;;;;;;;326.63;117.85;;;;;;;10.04;99.95;100041.38;276864;35;7831;-77
2023/05/11 00:25:24;;;;;;;326.30;117.17;;;;;;;10.00;99.99;100035.38;276005;35;7565;-78
2023/05/11 00:25:34;;;;;;;326.40;116.50;;;;;;;9.98;100.00;100036.34;277595;35;1120;-78
2023/05/11 00:25:45;;;;;;;324.50;114.80;;;;;;;9.98;100.00;100039.81;275014;35;7893;-77
2023/05/11 00:25:56;;;;;;;325.63;113.35;;;;;;;10.00;100.00;100040.63;273586;35;8832;-76
2023/05/11 00:26:17;;;;;;;;;;;;;;;;;;;;;
2023/05/11 00:27:33;;;;;;;311.81;106.68;;;;;;;10.12;100.00;100039.38;2495607;27;20722;-77
2023/05/11 00:27:44;;;;;;;323.57;115.27;;;;;;;10.11;100.00;100028.97;352802;28;1241;-78
2023/05/11 00:27:55;;;;;;;324.88;116.55;;;;;;;10.19;99.93;100035.69;351626;28;1273;-77
2023/05/11 00:28:06;;;;;;;325.13;117.63;;;;;;;10.19;99.98;100035.69;350558;28;1314;-76
2023/05/11 00:28:16;;;;;;;324.13;116.90;;;;;;;10.23;99.68;100034.69;348811;28;1176;-76
2023/05/11 00:28:27;;;;;;;321.03;115.80;;;;;;;10.23;100.00;100037.31;350174;28;916;-76
2023/05/11 00:28:38;;;;;;;319.60;114.23;;;;;;;10.24;99.48;100036.41;348860;28;1397;-76
2023/05/11 00:28:48;;;;;;;319.37;115.13;;;;;;;10.24;99.56;100039.00;348559;28;1284;-77
2023/05/11 00:28:58;;;;;;;320.90;115.90;;;;;;;10.27;99.68;100041.53;350158;28;1401;-77
2023/05/11 00:29:09;;;;;;;321.27;116.40;;;;;;;10.20;99.41;100032.16;349114;28;881;-77
2023/05/11 00:29:20;;;;;;;322.70;114.88;;;;;;;10.26;99.50;100039.81;348945;28;915;-77
2023/05/11 00:29:30;;;;;;;322.45;114.30;;;;;;;10.27;99.48;100043.28;348319;28;1477;-77
2023/05/11 00:29:41;;;;;;;323.13;113.47;;;;;;;10.24;99.34;100033.78;348653;28;1338;-76
2023/05/11 00:29:51;;;;;;;322.63;114.30;;;;;;;10.27;99.69;100040.69;349925;28;1378;-77
2023/05/11 00:30:01;;;;;;;322.33;114.17;;;;;;;10.22;99.46;100038.22;348717;28;1287;-76
2023/05/11 00:30:13;;;;;;;319.33;113.97;;;;;;;10.24;99.33;100032.94;350111;28;1487;-76
2023/05/11 00:30:24;;;;;;;319.40;115.30;;;;;;;10.30;99.53;100040.56;347461;28;1409;-76
2023/05/11 00:30:34;;;;;;;318.67;114.75;;;;;;;10.35;99.52;100037.81;347454;28;1219;-76
2023/05/11 00:30:45;;;;;;;320.17;115.50;;;;;;;10.38;99.19;100038.56;349468;28;893;-76
2023/05/11 00:30:56;;;;;;;322.67;116.15;;;;;;;10.40;99.26;100034.09;348666;28;1227;-76
2023/05/11 00:31:06;;;;;;;321.60;115.63;;;;;;;10.44;98.88;100043.56;344729;28;899;-77
2023/05/11 00:31:17;;;;;;;318.48;114.40;;;;;;;10.45;98.63;100033.97;348742;28;1196;-76
2023/05/11 00:31:27;;;;;;;316.17;113.47;;;;;;;10.47;98.69;100037.38;343364;28;1330;-76
2023/05/11 00:31:38;;;;;;;317.37;113.63;;;;;;;10.52;98.78;100038.94;342658;28;1329;-75
2023/05/11 00:31:48;;;;;;;317.67;113.38;;;;;;;10.55;98.53;100041.44;346069;28;1328;-76
2023/05/11 00:31:59;;;;;;;317.80;114.03;;;;;;;10.53;98.08;100042.41;347491;28;1235;-76
2023/05/11 00:32:09;;;;;;;317.27;114.40;;;;;;;10.41;97.99;100037.59;343515;28;1205;-77
2023/05/11 00:32:20;;;;;;;315.17;113.70;;;;;;;10.31;98.44;100027.44;344769;28;837;-77
2023/05/11 00:32:30;;;;;;;316.77;112.90;;;;;;;10.22;99.07;100030.34;343493;28;738;-77
2023/05/11 00:32:41;;;;;;;317.10;113.78;;;;;;;10.21;99.42;100038.25;344726;28;1216;-78
2023/05/11 00:32:52;;;;;;;319.35;114.50;;;;;;;10.23;99.31;100039.06;344630;28;1416;-78
2023/05/11 00:33:02;;;;;;;319.97;115.63;;;;;;;10.16;99.81;100038.38;343370;28;1331;-78
2023/05/11 00:33:13;;;;;;;321.50;116.00;;;;;;;10.14;99.69;100048.03;342754;28;1382;-77
2023/05/11 00:33:23;;;;;;;320.48;116.05;;;;;;;10.13;99.99;100042.84;343729;28;1398;-77
2023/05/11 00:33:34;;;;;;;318.30;114.97;;;;;;;10.04;100.00;100037.91;340649;28;1261;-78
2023/05/11 00:33:45;;;;;;;317.88;114.78;;;;;;;9.97;100.00;100037.25;344710;28;1304;-78
2023/05/11 00:33:55;;;;;;;318.50;114.65;;;;;;;9.96;100.00;100040.78;346569;28;1722;-77
2023/05/11 00:34:05;;;;;;;317.13;113.43;;;;;;;9.89;100.00;100044.50;348786;28;1257;-77
2023/05/11 00:34:16;;;;;;;317.15;112.18;;;;;;;9.86;100.00;100039.34;346047;28;1195;-77
2023/05/11 00:34:27;;;;;;;318.17;112.53;;;;;;;9.86;100.00;100035.00;340597;29;1174;-77
2023/05/11 00:34:37;;;;;;;319.27;113.50;;;;;;;9.87;100.00;100041.94;343452;28;1206;-77
2023/05/11 00:34:47;;;;;;;316.83;112.87;;;;;;;9.83;100.00;100036.84;344817;28;1183;-77
2023/05/11 00:34:58;;;;;;;316.92;112.75;;;;;;;9.79;100.00;100037.84;344947;28;1119;-77
2023/05/11 00:35:10;;;;;;;320.17;113.77;;;;;;;9.73;100.00;100035.41;340579;28;1293;-77
2023/05/11 00:35:20;;;;;;;322.17;113.43;;;;;;;9.76;100.00;100033.56;338687;29;1204;-78
2023/05/11 00:35:31;;;;;;;322.75;113.30;;;;;;;9.74;100.00;100039.72;337617;29;1345;-78
2023/05/11 00:35:42;;;;;;;321.27;113.95;;;;;;;9.77;100.00;100037.03;340484;28;1228;-78
2023/05/11 00:35:53;;;;;;;322.67;112.93;;;;;;;9.83;100.00;100042.06;343523;28;1326;-78
2023/05/11 00:36:03;;;;;;;321.50;113.10;;;;;;;9.83;100.00;100036.84;344523;28;2941;-77
2023/05/11 00:36:14;;;;;;;319.55;112.80;;;;;;;9.89;100.00;100034.03;335172;29;4661;-77
2023/05/11 00:36:24;;;;;;;319.40;114.67;;;;;;;9.93;100.00;100041.75;333166;29;3030;-77
2023/05/11 00:36:38;;;;;;;323.13;115.80;;;;;;;9.94;100.00;100038.22;337877;29;2882;-77
2023/05/11 00:36:48;;;;;;;323.70;115.18;;;;;;;9.90;100.00;100036.59;337807;29;3424;-77
2023/05/11 00:36:59;;;;;;;331.70;116.30;;;;;;;9.89;100.00;100041.88;336643;29;1258;-77
2023/05/11 00:37:09;;;;;;;328.73;114.40;;;;;;;9.88;100.00;100037.56;340857;28;1400;-77
2023/05/11 00:37:20;;;;;;;331.40;114.37;;;;;;;9.85;100.00;100042.88;340874;29;829;-77
2023/05/11 00:37:30;;;;;;;324.90;113.60;;;;;;;9.84;100.00;100041.16;336713;29;1511;-77
2023/05/11 00:37:40;;;;;;;322.93;115.10;;;;;;;9.88;100.00;100043.63;334792;29;1437;-77
2023/05/11 00:37:51;;;;;;;322.98;115.72;;;;;;;9.95;100.00;100044.31;335643;29;885;-77
2023/05/11 00:38:01;;;;;;;325.17;116.87;;;;;;;9.98;100.00;100045.03;332436;29;1410;-77
2023/05/11 00:38:12;;;;;;;325.20;115.82;;;;;;;10.00;100.00;100043.22;331431;29;2170;-77
2023/05/11 00:38:22;;;;;;;325.87;116.57;;;;;;;9.93;100.00;100038.28;328764;30;2253;-77
2023/05/11 00:38:33;;;;;;;323.07;116.00;;;;;;;9.93;100.00;100043.50;325653;30;1302;-77
2023/05/11 00:38:43;;;;;;;322.23;116.22;;;;;;;9.97;100.00;100039.84;327037;30;1616;-77
2023/05/11 00:38:54;;;;;;;323.42;116.57;;;;;;;9.99;100.00;100046.75;325669;30;1196;-77
2023/05/11 00:39:04;;;;;;;326.00;117.03;;;;;;;10.02;100.00;100040.56;326829;30;878;-77
2023/05/11 00:39:16;;;;;;;327.98;115.80;;;;;;;10.04;100.00;100049.22;329270;29;1339;-77
2023/05/11 00:39:26;;;;;;;329.85;114.75;;;;;;;9.96;100.00;100036.38;327615;30;1816;-77
2023/05/11 00:39:39;;;;;;;327.33;114.18;;;;;;;9.94;100.00;100048.69;323140;30;1985;-77
2023/05/11 00:39:49;;;;;;;326.05;115.38;;;;;;;9.96;100.00;100048.63;322138;30;1337;-77
2023/05/11 00:40:00;;;;;;;324.35;116.05;;;;;;;9.98;100.00;100039.81;323966;30;2116;-77
2023/05/11 00:40:10;;;;;;;322.70;115.37;;;;;;;10.01;100.00;100041.47;321919;30;2485;-77
2023/05/11 00:40:21;;;;;;;320.67;115.93;;;;;;;9.99;100.00;100040.66;319743;30;873;-77
2023/05/11 00:40:31;;;;;;;321.27;115.80;;;;;;;9.94;100.00;100046.06;319659;30;2755;-77
2023/05/11 00:40:42;;;;;;;321.65;114.03;;;;;;;9.89;100.00;100052.34;318816;30;2737;-77
2023/05/11 00:40:52;;;;;;;321.57;113.53;;;;;;;9.86;100.00;100049.81;320588;30;1898;-77
2023/05/11 00:41:02;;;;;;;322.52;114.95;;;;;;;9.86;100.00;100050.66;321728;30;1404;-77
2023/05/11 00:41:13;;;;;;;322.33;116.30;;;;;;;9.85;100.00;100045.50;320417;30;1282;-77
2023/05/11 00:41:23;;;;;;;323.45;117.22;;;;;;;9.86;100.00;100049.81;319394;30;2035;-77
2023/05/11 00:41:34;;;;;;;319.63;114.47;;;;;;;9.88;100.00;100042.78;316283;31;1217;-77
2023/05/11 00:41:44;;;;;;;318.88;113.85;;;;;;;9.88;100.00;100042.78;318003;30;2376;-77
2023/05/11 00:41:55;;;;;;;318.93;113.00;;;;;;;9.84;100.00;100038.56;314070;31;2799;-77
2023/05/11 00:42:05;;;;;;;321.80;114.57;;;;;;;9.80;100.00;100043.00;314951;31;1431;-77
2023/05/11 00:42:16;;;;;;;322.23;113.83;;;;;;;9.82;100.00;100042.97;308042;31;2908;-77
2023/05/11 00:42:26;;;;;;;321.85;112.65;;;;;;;9.83;100.00;100049.91;309094;31;2950;-77
2023/05/11 00:42:37;;;;;;;323.40;114.60;;;;;;;9.89;100.00;100057.56;310582;31;1227;-76
2023/05/11 00:42:47;;;;;;;322.83;114.88;;;;;;;9.89;100.00;100041.88;306285;32;1330;-77
2023/05/11 00:42:57;;;;;;;323.07;115.97;;;;;;;9.85;100.00;100042.88;305894;32;2119;-77
2023/05/11 00:43:08;;;;;;;323.33;115.00;;;;;;;9.86;100.00;100044.59;304832;32;2356;-77
2023/05/11 00:43:18;;;;;;;324.40;113.87;;;;;;;9.89;100.00;100052.34;306380;32;753;-77
2023/05/11 00:43:29;;;;;;;324.88;113.60;;;;;;;9.88;100.00;100046.25;302133;32;2050;-77
2023/05/11 00:43:39;;;;;;;324.93;114.67;;;;;;;9.92;100.00;100049.63;301804;32;2738;-77
2023/05/11 00:43:50;;;;;;;325.27;115.30;;;;;;;9.95;100.00;100049.53;304211;32;1296;-77
2023/05/11 00:44:00;;;;;;;326.80;115.47;;;;;;;9.94;100.00;100037.38;302749;32;3499;-77
2023/05/11 00:44:11;;;;;;;324.70;113.82;;;;;;;9.91;100.00;100042.69;300867;32;4328;-77
2023/05/11 00:44:21;;;;;;;327.13;114.57;;;;;;;9.89;100.00;100049.72;301617;32;1232;-77
2023/05/11 00:44:32;;;;;;;323.75;112.82;;;;;;;9.83;100.00;100049.91;295245;33;4622;-76
2023/05/11 00:44:43;;;;;;;324.27;113.07;;;;;;;9.85;100.00;100042.88;297384;32;3832;-77
2023/05/11 00:44:53;;;;;;;322.37;114.00;;;;;;;9.76;100.00;100037.94;299331;32;3210;-77
2023/05/11 00:45:04;;;;;;;323.23;116.50;;;;;;;9.76;100.00;100040.53;301018;32;1350;-77
2023/05/11 00:45:14;;;;;;;325.00;116.95;;;;;;;9.68;100.00;100041.63;298098;32;3154;-77
2023/05/11 00:45:25;;;;;;;327.13;118.80;;;;;;;9.66;100.00;100047.81;299636;32;3471;-78
2023/05/11 00:45:36;;;;;;;327.15;119.45;;;;;;;9.59;100.00;100035.81;301514;32;2749;-78
2023/05/11 00:45:48;;;;;;;323.23;117.18;;;;;;;9.58;100.00;100044.56;300684;32;3887;-77
2023/05/11 00:45:59;;;;;;;319.00;112.78;;;;;;;9.54;100.00;100042.94;295522;33;3933;-77
2023/05/11 00:46:10;;;;;;;319.58;112.20;;;;;;;9.51;100.00;100046.53;291642;33;4814;-77
2023/05/11 00:46:21;;;;;;;320.38;113.22;;;;;;;9.53;100.00;100039.47;289169;34;1074;-77
2023/05/11 00:46:31;;;;;;;323.88;115.13;;;;;;;9.52;100.00;100040.41;288050;33;6301;-77
2023/05/11 00:46:41;;;;;;;323.93;115.53;;;;;;;9.55;100.00;100050.72;287178;34;8047;-77
2023/05/11 00:46:52;;;;;;;325.05;115.88;;;;;;;9.58;100.00;100045.41;284095;33;5886;-77
2023/05/11 00:47:02;;;;;;;327.17;118.10;;;;;;;9.56;100.00;100039.38;287897;34;801;-77
2023/05/11 00:47:13;;;;;;;333.98;117.10;;;;;;;9.58;100.00;100045.41;287064;34;4797;-77
2023/05/11 00:47:23;;;;;;;329.60;115.47;;;;;;;9.60;100.00;100045.38;285453;34;5968;-77
2023/05/11 00:47:33;;;;;;;324.85;114.78;;;;;;;9.67;100.00;100042.53;288194;34;887;-77
2023/05/11 00:47:44;;;;;;;319.23;115.33;;;;;;;9.73;100.00;100048.47;285481;34;4203;-77
2023/05/11 00:47:54;;;;;;;321.77;115.57;;;;;;;9.76;100.00;100045.78;284979;34;5516;-76
2023/05/11 00:48:05;;;;;;;321.50;114.70;;;;;;;9.81;100.00;100049.09;283592;34;852;-76
2023/05/11 00:48:16;;;;;;;323.73;115.93;;;;;;;9.86;100.00;100044.59;276724;34;6708;-76
2023/05/11 00:48:26;;;;;;;324.03;116.23;;;;;;;9.88;100.00;100051.47;273863;35;7483;-77
2023/05/11 00:50:34;;;;;;;312.46;105.14;;;;;;;9.40;100.00;100043.38;2499455;27;20479;-77
2023/05/11 00:50:45;;;;;;;322.40;110.68;;;;;;;9.45;100.00;100046.69;354538;27;970;-77
2023/05/11 00:50:55;;;;;;;323.87;111.70;;;;;;;9.43;100.00;100045.88;351637;28;919;-76
2023/05/11 00:51:05;;;;;;;323.37;111.80;;;;;;;9.43;100.00;100045.03;350287;28;804;-77
2023/05/11 00:51:16;;;;;;;322.50;111.07;;;;;;;9.47;100.00;100052.75;348894;28;887;-77
2023/05/11 00:51:26;;;;;;;321.53;110.20;;;;;;;9.48;100.00;100044.00;347566;28;824;-77
2023/05/11 00:51:37;;;;;;;324.92;111.65;;;;;;;9.48;100.00;100049.22;350116;28;1193;-76
2023/05/11 00:51:47;;;;;;;327.70;112.53;;;;;;;9.51;100.00;100043.06;349229;28;729;-76
2023/05/11 00:52:01;;;;;;;327.63;114.10;;;;;;;9.51;100.00;100046.53;346971;28;2969;-76
2023/05/11 00:52:12;;;;;;;322.80;111.57;;;;;;;9.48;100.00;100048.38;348082;28;4228;-76
2023/05/11 00:52:22;;;;;;;319.70;109.97;;;;;;;9.47;100.00;100052.75;349560;28;3026;-76
2023/05/11 00:52:33;;;;;;;324.50;111.85;;;;;;;9.44;100.00;100050.22;347381;28;1332;-76
2023/05/11 00:52:44;;;;;;;320.58;110.50;;;;;;;9.44;100.00;100047.59;350156;28;1544;-76
2023/05/11 00:52:54;;;;;;;322.38;111.82;;;;;;;9.47;100.00;100042.28;347054;28;1535;-76
2023/05/11 00:53:05;;;;;;;321.80;111.57;;;;;;;9.51;100.00;100043.91;345935;28;796;-76
2023/05/11 00:53:15;;;;;;;324.45;111.90;;;;;;;9.52;100.00;100040.41;347458;28;1291;-77
2023/05/11 00:53:26;;;;;;;326.03;111.50;;;;;;;9.54;100.00;100038.56;347536;28;899;-76
2023/05/11 00:53:36;;;;;;;323.80;111.15;;;;;;;9.59;100.00;100043.66;347395;28;1477;-76
2023/05/11 00:53:47;;;;;;;324.40;112.73;;;;;;;9.61;100.00;100040.09;350130;28;1441;-76
2023/05/11 00:53:58;;;;;;;322.55;111.55;;;;;;;9.62;100.00;100040.94;348577;28;1290;-76
2023/05/11 00:54:14;;;;;;;323.77;111.87;;;;;;;9.60;100.00;100051.44;347312;28;1291;-76
2023/05/11 00:54:24;;;;;;;323.58;113.85;;;;;;;9.50;100.00;100042.19;346166;28;1396;-76